sensor_id;sensor_type;location;lat;lon;timestamp;pressure;altitude;pressure_sealevel;temperature;humidity
72395;BME280;60384;48.152;11.614;2023-03-20T00:01:12;95841.16;;;10.63;53.17
72395;BME280;60384;48.152;11.614;2023-03-20T00:04:15;95844.94;;;10.62;54.01
72395;BME280;60384;48.152;11.614;2023-03-20T00:07:17;95843.34;;;10.61;53.81
72395;BME280;60384;48.152;11.614;2023-03-20T00:10:20;95845.22;;;10.60;53.48
72395;BME280;60384;48.152;11.614;2023-03-20T00:13:24;95850.91;;;10.59;53.55
72395;BME280;60384;48.152;11.614;2023-03-20T00:16:30;95843.50;;;10.56;54.11
72395;BME280;60384;48.152;11.614;2023-03-20T00:19:34;95849.47;;;10.53;53.95
72395;BME280;60384;48.152;11.614;2023-03-20T00:22:35;95840.19;;;10.50;53.93
72395;BME280;60384;48.152;11.614;2023-03-20T00:25:38;95847.72;;;10.48;53.67
72395;BME280;60384;48.152;11.614;2023-03-20T00:28:43;95838.16;;;10.47;54.33
72395;BME280;60384;48.152;11.614;2023-03-20T00:31:45;95851.03;;;10.45;54.29
72395;BME280;60384;48.152;11.614;2023-03-20T00:34:48;95849.13;;;10.46;54.10
72395;BME280;60384;48.152;11.614;2023-03-20T00:37:51;95841.44;;;10.44;54.74
72395;BME280;60384;48.152;11.614;2023-03-20T00:40:52;95849.00;;;10.42;54.39
72395;BME280;60384;48.152;11.614;2023-03-20T00:43:57;95844.75;;;10.41;55.07
72395;BME280;60384;48.152;11.614;2023-03-20T00:47:02;95845.81;;;10.40;55.34
72395;BME280;60384;48.152;11.614;2023-03-20T00:50:14;95850.06;;;10.41;55.39
72395;BME280;60384;48.152;11.614;2023-03-20T00:53:17;95848.81;;;10.39;55.35
72395;BME280;60384;48.152;11.614;2023-03-20T00:56:29;95845.66;;;10.37;55.79
72395;BME280;60384;48.152;11.614;2023-03-20T00:59:35;95841.44;;;10.35;55.87
72395;BME280;60384;48.152;11.614;2023-03-20T01:02:38;95841.72;;;10.34;56.52
72395;BME280;60384;48.152;11.614;2023-03-20T01:05:42;95840.16;;;10.33;56.30
72395;BME280;60384;48.152;11.614;2023-03-20T01:08:44;95844.69;;;10.32;56.83
72395;BME280;60384;48.152;11.614;2023-03-20T01:11:48;95835.44;;;10.30;56.83
72395;BME280;60384;48.152;11.614;2023-03-20T01:14:51;95845.00;;;10.31;56.94
72395;BME280;60384;48.152;11.614;2023-03-20T01:17:54;95842.34;;;10.31;57.11
72395;BME280;60384;48.152;11.614;2023-03-20T01:20:57;95849.59;;;10.30;57.11
72395;BME280;60384;48.152;11.614;2023-03-20T01:23:59;95840.00;;;10.29;56.90
72395;BME280;60384;48.152;11.614;2023-03-20T01:27:01;95844.53;;;10.29;57.32
72395;BME280;60384;48.152;11.614;2023-03-20T01:30:15;95853.34;;;10.29;57.53
72395;BME280;60384;48.152;11.614;2023-03-20T01:33:19;95843.44;;;10.30;57.00
72395;BME280;60384;48.152;11.614;2023-03-20T01:36:28;95840.44;;;10.31;57.57
72395;BME280;60384;48.152;11.614;2023-03-20T01:39:32;95848.47;;;10.31;57.89
72395;BME280;60384;48.152;11.614;2023-03-20T01:42:35;95846.91;;;10.30;57.47
72395;BME280;60384;48.152;11.614;2023-03-20T01:45:38;95850.66;;;10.29;57.73
72395;BME280;60384;48.152;11.614;2023-03-20T01:49:08;95848.78;;;10.30;57.52
72395;BME280;60384;48.152;11.614;2023-03-20T01:52:35;95848.00;;;10.29;58.31
72395;BME280;60384;48.152;11.614;2023-03-20T01:55:38;95846.13;;;10.30;58.05
72395;BME280;60384;48.152;11.614;2023-03-20T01:58:46;95843.44;;;10.30;58.08
72395;BME280;60384;48.152;11.614;2023-03-20T02:01:49;95844.53;;;10.29;57.88
72395;BME280;60384;48.152;11.614;2023-03-20T02:04:57;95843.44;;;10.30;58.34
72395;BME280;60384;48.152;11.614;2023-03-20T02:08:10;95844.69;;;10.32;58.54
72395;BME280;60384;48.152;11.614;2023-03-20T02:11:19;95843.91;;;10.32;57.95
72395;BME280;60384;48.152;11.614;2023-03-20T02:14:22;95840.16;;;10.33;58.21
72395;BME280;60384;48.152;11.614;2023-03-20T02:17:47;95844.41;;;10.34;58.33
72395;BME280;60384;48.152;11.614;2023-03-20T02:21:06;95844.88;;;10.36;58.08
72395;BME280;60384;48.152;11.614;2023-03-20T02:24:44;95843.75;;;10.37;58.69
72395;BME280;60384;48.152;11.614;2023-03-20T02:28:12;95847.22;;;10.38;58.30
72395;BME280;60384;48.152;11.614;2023-03-20T02:31:45;95844.56;;;10.38;58.73
72395;BME280;60384;48.152;11.614;2023-03-20T02:35:22;95845.34;;;10.38;58.18
72395;BME280;60384;48.152;11.614;2023-03-20T02:42:07;95846.44;;;10.37;58.65
72395;BME280;60384;48.152;11.614;2023-03-20T02:45:16;95842.22;;;10.36;58.98
72395;BME280;60384;48.152;11.614;2023-03-20T02:48:37;95840.16;;;10.33;58.45
72395;BME280;60384;48.152;11.614;2023-03-20T02:51:47;95838.25;;;10.33;58.99
72395;BME280;60384;48.152;11.614;2023-03-20T02:54:58;95841.72;;;10.34;58.56
72395;BME280;60384;48.152;11.614;2023-03-20T02:58:11;95833.72;;;10.34;58.55
72395;BME280;60384;48.152;11.614;2023-03-20T03:01:19;95846.75;;;10.35;58.79
72395;BME280;60384;48.152;11.614;2023-03-20T03:04:25;95848.94;;;10.33;58.56
72395;BME280;60384;48.152;11.614;2023-03-20T03:07:31;95844.69;;;10.32;58.71
72395;BME280;60384;48.152;11.614;2023-03-20T03:10:37;95845.34;;;10.29;58.71
72395;BME280;60384;48.152;11.614;2023-03-20T03:13:44;95849.69;;;10.25;58.92
72395;BME280;60384;48.152;11.614;2023-03-20T03:16:48;95840.94;;;10.25;58.48
72395;BME280;60384;48.152;11.614;2023-03-20T03:19:53;95848.94;;;10.25;58.92
72395;BME280;60384;48.152;11.614;2023-03-20T03:22:58;95845.47;;;10.24;58.87
72395;BME280;60384;48.152;11.614;2023-03-20T03:26:05;95842.81;;;10.24;59.06
72395;BME280;60384;48.152;11.614;2023-03-20T03:29:12;95838.56;;;10.23;58.45
72395;BME280;60384;48.152;11.614;2023-03-20T03:32:28;95846.56;;;10.23;59.08
72395;BME280;60384;48.152;11.614;2023-03-20T03:35:32;95842.31;;;10.22;59.10
72395;BME280;60384;48.152;11.614;2023-03-20T03:38:39;95853.28;;;10.21;59.04
72395;BME280;60384;48.152;11.614;2023-03-20T03:41:48;95862.41;;;10.20;58.92
72395;BME280;60384;48.152;11.614;2023-03-20T03:44:56;95861.31;;;10.21;58.58
72395;BME280;60384;48.152;11.614;2023-03-20T03:48:04;95867.44;;;10.21;58.60
72395;BME280;60384;48.152;11.614;2023-03-20T03:51:11;95856.75;;;10.21;58.51
72395;BME280;60384;48.152;11.614;2023-03-20T03:54:31;95867.72;;;10.20;58.55
72395;BME280;60384;48.152;11.614;2023-03-20T03:58:07;95868.06;;;10.18;58.71
72395;BME280;60384;48.152;11.614;2023-03-20T04:01:13;95871.81;;;10.17;58.68
72395;BME280;60384;48.152;11.614;2023-03-20T04:04:16;95873.41;;;10.18;58.84
72395;BME280;60384;48.152;11.614;2023-03-20T04:07:20;95873.72;;;10.17;58.66
72395;BME280;60384;48.152;11.614;2023-03-20T04:10:23;95880.41;;;10.14;58.65
72395;BME280;60384;48.152;11.614;2023-03-20T04:13:26;95885.75;;;10.14;58.59
72395;BME280;60384;48.152;11.614;2023-03-20T04:16:28;95880.41;;;10.14;58.32
72395;BME280;60384;48.152;11.614;2023-03-20T04:19:30;95887.63;;;10.14;58.91
72395;BME280;60384;48.152;11.614;2023-03-20T04:22:32;95891.88;;;10.15;58.41
72395;BME280;60384;48.152;11.614;2023-03-20T04:25:40;95889.72;;;10.17;58.46
72395;BME280;60384;48.152;11.614;2023-03-20T04:28:43;95885.44;;;10.16;58.39
72395;BME280;60384;48.152;11.614;2023-03-20T04:32:08;95888.94;;;10.16;58.58
72395;BME280;60384;48.152;11.614;2023-03-20T04:35:28;95893.75;;;10.14;58.51
72395;BME280;60384;48.152;11.614;2023-03-20T04:38:35;95891.88;;;10.15;58.56
72395;BME280;60384;48.152;11.614;2023-03-20T04:41:37;95898.31;;;10.14;58.63
72395;BME280;60384;48.152;11.614;2023-03-20T04:44:40;95903.97;;;10.12;58.18
72395;BME280;60384;48.152;11.614;2023-03-20T04:47:42;95895.47;;;10.10;58.16
72395;BME280;60384;48.152;11.614;2023-03-20T04:50:46;95904.09;;;10.07;58.60
72395;BME280;60384;48.152;11.614;2023-03-20T04:53:52;95910.53;;;10.06;58.38
72395;BME280;60384;48.152;11.614;2023-03-20T04:56:54;95908.78;;;10.02;58.26
72395;BME280;60384;48.152;11.614;2023-03-20T04:59:57;95912.69;;;9.95;58.41
72395;BME280;60384;48.152;11.614;2023-03-20T05:02:59;95911.41;;;9.93;58.54
72395;BME280;60384;48.152;11.614;2023-03-20T05:06:00;95917.03;;;9.91;58.25
72395;BME280;60384;48.152;11.614;2023-03-20T05:09:03;95913.91;;;9.89;58.21
72395;BME280;60384;48.152;11.614;2023-03-20T05:12:07;95909.94;;;9.87;57.86
72395;BME280;60384;48.152;11.614;2023-03-20T05:15:16;95920.91;;;9.85;58.18
72395;BME280;60384;48.152;11.614;2023-03-20T05:18:37;95923.91;;;9.84;58.33
72395;BME280;60384;48.152;11.614;2023-03-20T05:21:58;95925.00;;;9.83;58.02
72395;BME280;60384;48.152;11.614;2023-03-20T05:25:23;95929.25;;;9.84;58.35
72395;BME280;60384;48.152;11.614;2023-03-20T05:28:44;95928.75;;;9.82;58.26
72395;BME280;60384;48.152;11.614;2023-03-20T05:32:06;95931.25;;;9.78;58.26
72395;BME280;60384;48.152;11.614;2023-03-20T05:35:34;95937.69;;;9.77;58.07
72395;BME280;60384;48.152;11.614;2023-03-20T05:38:46;95932.34;;;9.77;57.98
72395;BME280;60384;48.152;11.614;2023-03-20T05:41:57;95944.59;;;9.78;58.07
72395;BME280;60384;48.152;11.614;2023-03-20T05:45:18;95946.16;;;9.79;58.01
72395;BME280;60384;48.152;11.614;2023-03-20T05:48:30;95942.38;;;9.80;57.99
72395;BME280;60384;48.152;11.614;2023-03-20T05:52:01;95951.19;;;9.81;57.93
72395;BME280;60384;48.152;11.614;2023-03-20T05:55:21;95953.84;;;9.81;57.79
72395;BME280;60384;48.152;11.614;2023-03-20T05:58:46;95969.06;;;9.80;58.02
72395;BME280;60384;48.152;11.614;2023-03-20T06:02:06;95969.19;;;9.75;57.57
72395;BME280;60384;48.152;11.614;2023-03-20T06:05:12;95966.53;;;9.75;57.91
72395;BME280;60384;48.152;11.614;2023-03-20T06:08:21;95972.66;;;9.76;57.68
72395;BME280;60384;48.152;11.614;2023-03-20T06:11:23;95971.56;;;9.77;57.70
72395;BME280;60384;48.152;11.614;2023-03-20T06:14:25;95978.28;;;9.74;57.29
72395;BME280;60384;48.152;11.614;2023-03-20T06:17:31;95981.56;;;9.71;57.47
72395;BME280;60384;48.152;11.614;2023-03-20T06:20:38;95985.94;;;9.67;57.29
72395;BME280;60384;48.152;11.614;2023-03-20T06:23:39;95980.91;;;9.66;58.15
72395;BME280;60384;48.152;11.614;2023-03-20T06:26:42;95985.75;;;9.64;57.80
72395;BME280;60384;48.152;11.614;2023-03-20T06:29:46;95997.19;;;9.64;57.49
72395;BME280;60384;48.152;11.614;2023-03-20T06:32:59;95991.06;;;9.64;57.48
72395;BME280;60384;48.152;11.614;2023-03-20T06:36:11;95982.78;;;9.65;57.60
72395;BME280;60384;48.152;11.614;2023-03-20T06:39:14;95995.03;;;9.66;57.52
72395;BME280;60384;48.152;11.614;2023-03-20T06:42:16;95998.78;;;9.65;57.52
72395;BME280;60384;48.152;11.614;2023-03-20T06:45:21;96007.75;;;9.69;57.67
72395;BME280;60384;48.152;11.614;2023-03-20T06:48:26;95994.28;;;9.74;57.27
72395;BME280;60384;48.152;11.614;2023-03-20T06:51:30;95997.16;;;9.78;57.32
72395;BME280;60384;48.152;11.614;2023-03-20T06:54:32;95995.28;;;9.78;57.16
72395;BME280;60384;48.152;11.614;2023-03-20T06:57:34;95993.69;;;9.77;57.16
72395;BME280;60384;48.152;11.614;2023-03-20T07:00:36;95999.19;;;9.81;57.14
72395;BME280;60384;48.152;11.614;2023-03-20T07:03:41;96000.00;;;9.81;57.12
72395;BME280;60384;48.152;11.614;2023-03-20T07:06:45;95997.81;;;9.83;57.01
72395;BME280;60384;48.152;11.614;2023-03-20T07:09:47;95990.78;;;9.87;57.29
72395;BME280;60384;48.152;11.614;2023-03-20T07:12:50;95993.63;;;9.91;57.02
72395;BME280;60384;48.152;11.614;2023-03-20T07:15:51;96007.66;;;9.97;56.96
72395;BME280;60384;48.152;11.614;2023-03-20T07:18:56;96003.44;;;10.04;56.47
72395;BME280;60384;48.152;11.614;2023-03-20T07:21:59;96015.28;;;10.12;56.18
72395;BME280;60384;48.152;11.614;2023-03-20T07:25:09;96011.44;;;10.18;56.27
72395;BME280;60384;48.152;11.614;2023-03-20T07:28:11;96013.84;;;10.28;56.59
72395;BME280;60384;48.152;11.614;2023-03-20T07:31:18;96011.03;;;10.33;56.03
72395;BME280;60384;48.152;11.614;2023-03-20T07:34:23;96016.25;;;10.38;56.45
72395;BME280;60384;48.152;11.614;2023-03-20T07:37:28;96018.78;;;10.43;56.44
72395;BME280;60384;48.152;11.614;2023-03-20T07:40:36;96020.06;;;10.46;56.50
72395;BME280;60384;48.152;11.614;2023-03-20T07:43:43;96032.19;;;10.52;55.84
72395;BME280;60384;48.152;11.614;2023-03-20T07:47:03;96026.84;;;10.52;56.66
72395;BME280;60384;48.152;11.614;2023-03-20T07:50:07;96037.03;;;10.50;56.72
72395;BME280;60384;48.152;11.614;2023-03-20T07:53:10;96036.75;;;10.51;56.02
72395;BME280;60384;48.152;11.614;2023-03-20T07:56:12;96031.78;;;10.67;56.51
72395;BME280;60384;48.152;11.614;2023-03-20T07:59:14;96039.59;;;10.86;56.04
72395;BME280;60384;48.152;11.614;2023-03-20T08:02:18;96030.78;;;10.94;55.57
72395;BME280;60384;48.152;11.614;2023-03-20T08:05:26;96027.66;;;11.00;55.65
72395;BME280;60384;48.152;11.614;2023-03-20T08:08:29;96025.19;;;11.12;55.68
72395;BME280;60384;48.152;11.614;2023-03-20T08:11:31;96026.31;;;11.29;55.56
72395;BME280;60384;48.152;11.614;2023-03-20T08:14:33;96028.75;;;11.56;54.43
72395;BME280;60384;48.152;11.614;2023-03-20T08:17:41;96028.47;;;11.75;54.59
72395;BME280;60384;48.152;11.614;2023-03-20T08:20:43;96025.16;;;11.86;54.78
72395;BME280;60384;48.152;11.614;2023-03-20T08:23:46;96036.66;;;11.95;54.65
72395;BME280;60384;48.152;11.614;2023-03-20T08:26:48;96038.56;;;11.95;54.92
72395;BME280;60384;48.152;11.614;2023-03-20T08:29:51;96034.00;;;11.95;54.53
72395;BME280;60384;48.152;11.614;2023-03-20T08:32:53;96035.88;;;12.04;55.23
72395;BME280;60384;48.152;11.614;2023-03-20T08:35:55;96025.94;;;12.13;55.04
72395;BME280;60384;48.152;11.614;2023-03-20T08:38:58;96026.22;;;12.20;54.68
72395;BME280;60384;48.152;11.614;2023-03-20T08:42:00;96022.75;;;12.19;54.72
72395;BME280;60384;48.152;11.614;2023-03-20T08:45:02;96020.72;;;12.33;55.04
72395;BME280;60384;48.152;11.614;2023-03-20T08:48:04;96014.06;;;12.39;54.29
72395;BME280;60384;48.152;11.614;2023-03-20T08:51:07;96014.03;;;12.48;54.83
72395;BME280;60384;48.152;11.614;2023-03-20T08:54:10;96021.75;;;12.58;54.75
72395;BME280;60384;48.152;11.614;2023-03-20T08:57:12;96014.38;;;12.47;54.32
72395;BME280;60384;48.152;11.614;2023-03-20T09:00:15;96020.84;;;12.37;54.76
72395;BME280;60384;48.152;11.614;2023-03-20T09:03:19;96025.41;;;12.45;54.16
72395;BME280;60384;48.152;11.614;2023-03-20T09:06:21;96028.94;;;12.75;54.00
72395;BME280;60384;48.152;11.614;2023-03-20T09:09:24;96022.97;;;12.69;54.28
72395;BME280;60384;48.152;11.614;2023-03-20T09:12:28;96027.88;;;12.59;54.49
72395;BME280;60384;48.152;11.614;2023-03-20T09:15:33;96028.53;;;12.56;54.90
72395;BME280;60384;48.152;11.614;2023-03-20T09:18:35;96029.78;;;12.58;55.09
72395;BME280;60384;48.152;11.614;2023-03-20T09:21:37;96036.56;;;12.56;54.64
72395;BME280;60384;48.152;11.614;2023-03-20T09:24:40;96033.94;;;12.47;55.28
72395;BME280;60384;48.152;11.614;2023-03-20T09:27:42;96033.94;;;12.38;55.62
72395;BME280;60384;48.152;11.614;2023-03-20T09:30:44;96040.56;;;12.41;54.88
72395;BME280;60384;48.152;11.614;2023-03-20T09:33:45;96040.50;;;12.58;55.10
72395;BME280;60384;48.152;11.614;2023-03-20T09:36:47;96038.06;;;12.82;54.73
72395;BME280;60384;48.152;11.614;2023-03-20T09:39:50;96041.91;;;12.64;54.63
72395;BME280;60384;48.152;11.614;2023-03-20T09:42:59;96041.00;;;12.52;54.73
72395;BME280;60384;48.152;11.614;2023-03-20T09:46:15;96037.31;;;12.65;55.39
72395;BME280;60384;48.152;11.614;2023-03-20T09:49:28;96038.59;;;12.59;55.42
72395;BME280;60384;48.152;11.614;2023-03-20T09:52:37;96030.13;;;12.48;55.62
72395;BME280;60384;48.152;11.614;2023-03-20T09:55:43;96030.28;;;12.52;54.93
72395;BME280;60384;48.152;11.614;2023-03-20T09:58:50;96030.41;;;12.64;55.73
72395;BME280;60384;48.152;11.614;2023-03-20T10:01:54;96029.56;;;12.72;55.63
72395;BME280;60384;48.152;11.614;2023-03-20T10:04:58;96018.84;;;13.18;54.10
72395;BME280;60384;48.152;11.614;2023-03-20T10:08:01;96014.84;;;15.83;48.32
72395;BME280;60384;48.152;11.614;2023-03-20T10:11:19;96009.25;;;14.66;51.41
72395;BME280;60384;48.152;11.614;2023-03-20T10:14:33;96016.53;;;14.00;53.29
72395;BME280;60384;48.152;11.614;2023-03-20T10:17:47;96019.09;;;13.55;54.41
72395;BME280;60384;48.152;11.614;2023-03-20T10:20:54;96009.97;;;13.27;54.89
72395;BME280;60384;48.152;11.614;2023-03-20T10:24:01;96014.44;;;13.14;55.36
72395;BME280;60384;48.152;11.614;2023-03-20T10:27:13;96015.72;;;13.08;55.19
72395;BME280;60384;48.152;11.614;2023-03-20T10:33:53;96012.88;;;13.13;55.17
72395;BME280;60384;48.152;11.614;2023-03-20T10:37:08;96012.78;;;13.30;54.71
72395;BME280;60384;48.152;11.614;2023-03-20T10:40:24;96007.34;;;14.55;53.33
72395;BME280;60384;48.152;11.614;2023-03-20T10:43:30;95995.56;;;16.52;47.76
72395;BME280;60384;48.152;11.614;2023-03-20T10:46:39;95994.78;;;15.68;50.23
72395;BME280;60384;48.152;11.614;2023-03-20T10:49:45;95988.16;;;15.78;50.25
72395;BME280;60384;48.152;11.614;2023-03-20T10:52:50;95978.63;;;16.24;49.85
72395;BME280;60384;48.152;11.614;2023-03-20T10:55:57;95979.41;;;15.68;51.42
72395;BME280;60384;48.152;11.614;2023-03-20T10:59:06;95979.16;;;14.97;52.63
72395;BME280;60384;48.152;11.614;2023-03-20T11:02:09;95978.78;;;14.50;53.70
72395;BME280;60384;48.152;11.614;2023-03-20T11:05:21;95984.25;;;14.21;54.22
72395;BME280;60384;48.152;11.614;2023-03-20T11:08:24;95983.97;;;14.01;54.73
72395;BME280;60384;48.152;11.614;2023-03-20T11:11:27;95976.84;;;14.05;54.64
72395;BME280;60384;48.152;11.614;2023-03-20T11:14:38;95975.66;;;14.27;54.12
72395;BME280;60384;48.152;11.614;2023-03-20T11:17:40;95974.34;;;14.33;53.75
72395;BME280;60384;48.152;11.614;2023-03-20T11:20:45;95969.09;;;14.37;53.88
72395;BME280;60384;48.152;11.614;2023-03-20T11:23:48;95976.16;;;14.41;53.84
72395;BME280;60384;48.152;11.614;2023-03-20T11:26:50;95972.53;;;15.19;52.04
72395;BME280;60384;48.152;11.614;2023-03-20T11:29:55;95970.16;;;15.17;52.31
72395;BME280;60384;48.152;11.614;2023-03-20T11:32:58;95953.91;;;20.68;43.15
72395;BME280;60384;48.152;11.614;2023-03-20T11:36:09;95940.03;;;24.16;38.81
72395;BME280;60384;48.152;11.614;2023-03-20T11:39:13;95946.50;;;26.25;37.83
72395;BME280;60384;48.152;11.614;2023-03-20T11:42:21;95962.75;;;24.72;41.34
72395;BME280;60384;48.152;11.614;2023-03-20T11:45:26;95954.09;;;22.02;46.02
72395;BME280;60384;48.152;11.614;2023-03-20T11:48:36;95954.44;;;20.40;49.29
72395;BME280;60384;48.152;11.614;2023-03-20T11:51:39;95951.22;;;19.64;50.08
72395;BME280;60384;48.152;11.614;2023-03-20T11:54:45;95944.38;;;18.95;51.33
72395;BME280;60384;48.152;11.614;2023-03-20T11:57:48;95942.81;;;18.29;52.31
72395;BME280;60384;48.152;11.614;2023-03-20T12:00:53;95943.31;;;17.58;52.85
72395;BME280;60384;48.152;11.614;2023-03-20T12:04:01;95944.13;;;17.23;53.26
72395;BME280;60384;48.152;11.614;2023-03-20T12:07:05;95950.09;;;16.82;53.63
72395;BME280;60384;48.152;11.614;2023-03-20T12:10:13;95948.16;;;16.51;54.45
72395;BME280;60384;48.152;11.614;2023-03-20T12:13:17;95949.50;;;16.29;54.50
72395;BME280;60384;48.152;11.614;2023-03-20T12:16:24;95957.81;;;16.08;54.50
72395;BME280;60384;48.152;11.614;2023-03-20T12:19:31;95950.81;;;15.92;54.33
72395;BME280;60384;48.152;11.614;2023-03-20T12:22:37;95954.13;;;15.73;54.34
72395;BME280;60384;48.152;11.614;2023-03-20T12:25:48;95952.09;;;15.54;55.06
72395;BME280;60384;48.152;11.614;2023-03-20T12:28:56;95953.19;;;15.41;54.76
72395;BME280;60384;48.152;11.614;2023-03-20T12:32:05;95944.25;;;15.37;54.31
72395;BME280;60384;48.152;11.614;2023-03-20T12:35:15;95937.69;;;15.50;53.87
72395;BME280;60384;48.152;11.614;2023-03-20T12:38:25;95940.38;;;15.50;53.72
72395;BME280;60384;48.152;11.614;2023-03-20T12:41:29;95939.75;;;15.29;54.13
72395;BME280;60384;48.152;11.614;2023-03-20T12:44:37;95929.72;;;15.02;54.71
72395;BME280;60384;48.152;11.614;2023-03-20T12:48:01;95937.00;;;14.89;55.11
72395;BME280;60384;48.152;11.614;2023-03-20T12:51:09;95931.94;;;14.75;54.78
72395;BME280;60384;48.152;11.614;2023-03-20T12:54:23;95935.41;;;14.64;54.93
72395;BME280;60384;48.152;11.614;2023-03-20T12:57:33;95937.19;;;14.47;55.12
72395;BME280;60384;48.152;11.614;2023-03-20T13:00:41;95942.22;;;14.37;55.26
72395;BME280;60384;48.152;11.614;2023-03-20T13:04:04;95946.66;;;14.33;55.64
72395;BME280;60384;48.152;11.614;2023-03-20T13:07:16;95946.88;;;14.28;55.23
72395;BME280;60384;48.152;11.614;2023-03-20T13:10:20;95947.09;;;14.23;55.16
72395;BME280;60384;48.152;11.614;2023-03-20T13:13:28;95935.44;;;14.19;55.08
72395;BME280;60384;48.152;11.614;2023-03-20T13:16:41;95942.91;;;14.13;55.30
72395;BME280;60384;48.152;11.614;2023-03-20T13:19:53;95941.38;;;14.12;55.25
72395;BME280;60384;48.152;11.614;2023-03-20T13:23:11;95936.66;;;14.09;55.44
72395;BME280;60384;48.152;11.614;2023-03-20T13:26:25;95932.16;;;14.13;55.04
72395;BME280;60384;48.152;11.614;2023-03-20T13:29:39;95935.91;;;14.21;54.58
72395;BME280;60384;48.152;11.614;2023-03-20T13:32:49;95933.03;;;14.38;54.60
72395;BME280;60384;48.152;11.614;2023-03-20T13:36:01;95926.34;;;14.56;53.91
72395;BME280;60384;48.152;11.614;2023-03-20T13:39:11;95923.44;;;14.85;53.58
72395;BME280;60384;48.152;11.614;2023-03-20T13:42:18;95926.09;;;15.10;53.11
72395;BME280;60384;48.152;11.614;2023-03-20T13:45:32;95930.63;;;15.46;52.69
72395;BME280;60384;48.152;11.614;2023-03-20T13:48:36;95919.25;;;15.77;52.43
72395;BME280;60384;48.152;11.614;2023-03-20T13:51:45;95913.84;;;16.20;51.41
72395;BME280;60384;48.152;11.614;2023-03-20T13:54:58;95907.50;;;17.26;49.72
72395;BME280;60384;48.152;11.614;2023-03-20T13:58:20;95900.69;;;17.67;49.30
72395;BME280;60384;48.152;11.614;2023-03-20T14:01:32;95905.28;;;16.77;51.20
72395;BME280;60384;48.152;11.614;2023-03-20T14:04:39;95912.41;;;16.70;51.20
72395;BME280;60384;48.152;11.614;2023-03-20T14:07:44;95900.22;;;16.76;51.19
72395;BME280;60384;48.152;11.614;2023-03-20T14:10:47;95898.88;;;17.36;50.18
72395;BME280;60384;48.152;11.614;2023-03-20T14:13:50;95891.97;;;17.39;50.12
72395;BME280;60384;48.152;11.614;2023-03-20T14:17:03;95892.88;;;17.62;50.10
72395;BME280;60384;48.152;11.614;2023-03-20T14:20:12;95893.34;;;18.29;49.32
72395;BME280;60384;48.152;11.614;2023-03-20T14:23:32;95891.72;;;18.47;49.36
72395;BME280;60384;48.152;11.614;2023-03-20T14:26:37;95883.44;;;18.82;48.94
72395;BME280;60384;48.152;11.614;2023-03-20T14:29:41;95881.00;;;18.50;49.79
72395;BME280;60384;48.152;11.614;2023-03-20T14:32:51;95877.03;;;18.02;50.81
72395;BME280;60384;48.152;11.614;2023-03-20T14:36:19;95877.66;;;17.54;51.68
72395;BME280;60384;48.152;11.614;2023-03-20T14:39:37;95881.16;;;17.19;52.12
72395;BME280;60384;48.152;11.614;2023-03-20T14:42:47;95872.88;;;16.93;52.37
72395;BME280;60384;48.152;11.614;2023-03-20T14:45:53;95880.09;;;16.89;52.15
72395;BME280;60384;48.152;11.614;2023-03-20T14:49:12;95879.09;;;17.13;51.75
72395;BME280;60384;48.152;11.614;2023-03-20T14:52:36;95878.09;;;16.86;52.33
72395;BME280;60384;48.152;11.614;2023-03-20T14:55:51;95877.25;;;16.66;52.37
72395;BME280;60384;48.152;11.614;2023-03-20T14:59:00;95869.13;;;16.82;52.27
72395;BME280;60384;48.152;11.614;2023-03-20T15:02:02;95875.25;;;16.63;52.83
72395;BME280;60384;48.152;11.614;2023-03-20T15:05:05;95874.91;;;16.33;53.02
72395;BME280;60384;48.152;11.614;2023-03-20T15:08:10;95874.19;;;16.05;53.54
72395;BME280;60384;48.152;11.614;2023-03-20T15:11:15;95865.31;;;15.89;53.46
72395;BME280;60384;48.152;11.614;2023-03-20T15:14:21;95878.38;;;15.75;53.36
72395;BME280;60384;48.152;11.614;2023-03-20T15:17:31;95870.09;;;15.67;53.67
72395;BME280;60384;48.152;11.614;2023-03-20T15:20:35;95869.47;;;15.58;53.58
72395;BME280;60384;48.152;11.614;2023-03-20T15:23:40;95880.91;;;15.55;53.63
72395;BME280;60384;48.152;11.614;2023-03-20T15:26:43;95871.72;;;15.56;53.15
72395;BME280;60384;48.152;11.614;2023-03-20T15:29:49;95876.22;;;15.52;52.90
72395;BME280;60384;48.152;11.614;2023-03-20T15:32:53;95877.25;;;15.48;53.60
72395;BME280;60384;48.152;11.614;2023-03-20T15:35:55;95872.56;;;15.32;53.64
72395;BME280;60384;48.152;11.614;2023-03-20T15:39:03;95867.78;;;15.26;53.35
72395;BME280;60384;48.152;11.614;2023-03-20T15:42:11;95867.78;;;15.26;53.39
72395;BME280;60384;48.152;11.614;2023-03-20T15:45:21;95873.03;;;15.22;53.48
72395;BME280;60384;48.152;11.614;2023-03-20T15:48:23;95870.50;;;15.14;53.40
72395;BME280;60384;48.152;11.614;2023-03-20T15:51:26;95867.94;;;15.05;53.91
72395;BME280;60384;48.152;11.614;2023-03-20T15:54:29;95874.31;;;15.01;53.35
72395;BME280;60384;48.152;11.614;2023-03-20T15:57:34;95864.59;;;14.96;53.41
72395;BME280;60384;48.152;11.614;2023-03-20T16:00:40;95866.72;;;14.91;53.83
72395;BME280;60384;48.152;11.614;2023-03-20T16:03:43;95864.38;;;14.77;53.48
72395;BME280;60384;48.152;11.614;2023-03-20T16:06:45;95872.03;;;14.75;53.90
72395;BME280;60384;48.152;11.614;2023-03-20T16:09:48;95862.03;;;14.75;53.76
72395;BME280;60384;48.152;11.614;2023-03-20T16:12:52;95863.72;;;14.68;53.61
72395;BME280;60384;48.152;11.614;2023-03-20T16:15:54;95865.97;;;14.54;53.78
72395;BME280;60384;48.152;11.614;2023-03-20T16:18:56;95864.75;;;14.39;54.05
72395;BME280;60384;48.152;11.614;2023-03-20T16:22:01;95857.09;;;14.29;53.86
72395;BME280;60384;48.152;11.614;2023-03-20T16:25:13;95849.44;;;14.19;53.89
72395;BME280;60384;48.152;11.614;2023-03-20T16:28:16;95852.25;;;14.10;54.20